sensor_id;sensor_type;location;lat;lon;timestamp;temperature;humidity
47310;DHT22;33046;52.270;6.832;2022-08-19T00:00:53;21.30;91.60
47310;DHT22;33046;52.270;6.832;2022-08-19T00:03:00;21.30;91.50
47310;DHT22;33046;52.270;6.832;2022-08-19T00:05:08;21.30;91.70
47310;DHT22;33046;52.270;6.832;2022-08-19T00:07:16;21.20;91.70
47310;DHT22;33046;52.270;6.832;2022-08-19T00:09:24;21.20;91.70
47310;DHT22;33046;52.270;6.832;2022-08-19T00:11:33;21.20;91.70
47310;DHT22;33046;52.270;6.832;2022-08-19T00:13:40;21.20;91.80
47310;DHT22;33046;52.270;6.832;2022-08-19T00:15:46;21.20;91.80
47310;DHT22;33046;52.270;6.832;2022-08-19T00:17:54;21.10;92.00
47310;DHT22;33046;52.270;6.832;2022-08-19T00:20:01;21.10;91.80
47310;DHT22;33046;52.270;6.832;2022-08-19T00:22:07;21.10;92.00
47310;DHT22;33046;52.270;6.832;2022-08-19T00:24:15;21.10;92.00
47310;DHT22;33046;52.270;6.832;2022-08-19T00:26:21;21.10;92.20
47310;DHT22;33046;52.270;6.832;2022-08-19T00:28:30;21.00;92.20
47310;DHT22;33046;52.270;6.832;2022-08-19T00:30:37;21.00;92.20
47310;DHT22;33046;52.270;6.832;2022-08-19T00:32:44;21.00;92.30
47310;DHT22;33046;52.270;6.832;2022-08-19T00:34:51;21.00;92.40
47310;DHT22;33046;52.270;6.832;2022-08-19T00:36:58;21.00;92.20
47310;DHT22;33046;52.270;6.832;2022-08-19T00:39:05;20.90;91.90
47310;DHT22;33046;52.270;6.832;2022-08-19T00:41:13;20.90;92.10
47310;DHT22;33046;52.270;6.832;2022-08-19T00:43:22;20.90;91.40
47310;DHT22;33046;52.270;6.832;2022-08-19T00:45:30;20.80;91.20
47310;DHT22;33046;52.270;6.832;2022-08-19T00:47:37;20.80;91.30
47310;DHT22;33046;52.270;6.832;2022-08-19T00:49:48;20.80;91.30
47310;DHT22;33046;52.270;6.832;2022-08-19T00:52:00;20.70;91.40
47310;DHT22;33046;52.270;6.832;2022-08-19T00:54:08;20.70;91.40
47310;DHT22;33046;52.270;6.832;2022-08-19T00:56:15;20.70;91.60
47310;DHT22;33046;52.270;6.832;2022-08-19T00:58:24;20.70;91.90
47310;DHT22;33046;52.270;6.832;2022-08-19T01:00:34;20.60;92.10
47310;DHT22;33046;52.270;6.832;2022-08-19T01:02:42;20.60;92.00
47310;DHT22;33046;52.270;6.832;2022-08-19T01:04:49;20.60;91.90
47310;DHT22;33046;52.270;6.832;2022-08-19T01:06:56;20.60;91.90
47310;DHT22;33046;52.270;6.832;2022-08-19T01:09:04;20.60;92.00
47310;DHT22;33046;52.270;6.832;2022-08-19T01:11:12;20.60;92.10
47310;DHT22;33046;52.270;6.832;2022-08-19T01:13:21;20.60;92.10
47310;DHT22;33046;52.270;6.832;2022-08-19T01:15:31;20.60;92.10
47310;DHT22;33046;52.270;6.832;2022-08-19T01:17:40;20.50;92.20
47310;DHT22;33046;52.270;6.832;2022-08-19T01:19:48;20.50;92.10
47310;DHT22;33046;52.270;6.832;2022-08-19T01:21:59;20.40;91.90
47310;DHT22;33046;52.270;6.832;2022-08-19T01:24:08;20.40;91.80
47310;DHT22;33046;52.270;6.832;2022-08-19T01:26:18;20.40;91.80
47310;DHT22;33046;52.270;6.832;2022-08-19T01:28:26;20.40;92.00
47310;DHT22;33046;52.270;6.832;2022-08-19T01:30:35;20.40;92.00
47310;DHT22;33046;52.270;6.832;2022-08-19T01:32:42;20.30;92.00
47310;DHT22;33046;52.270;6.832;2022-08-19T01:34:49;20.30;91.90
47310;DHT22;33046;52.270;6.832;2022-08-19T01:36:55;20.30;91.80
47310;DHT22;33046;52.270;6.832;2022-08-19T01:39:05;20.30;91.80
47310;DHT22;33046;52.270;6.832;2022-08-19T01:41:13;20.30;91.70
47310;DHT22;33046;52.270;6.832;2022-08-19T01:43:20;20.20;91.80
47310;DHT22;33046;52.270;6.832;2022-08-19T01:45:28;20.30;91.90
47310;DHT22;33046;52.270;6.832;2022-08-19T01:47:36;20.30;92.00
47310;DHT22;33046;52.270;6.832;2022-08-19T01:49:43;20.20;92.10
47310;DHT22;33046;52.270;6.832;2022-08-19T01:51:50;20.20;92.00
47310;DHT22;33046;52.270;6.832;2022-08-19T01:53:57;20.20;92.40
47310;DHT22;33046;52.270;6.832;2022-08-19T01:56:05;20.20;92.60
47310;DHT22;33046;52.270;6.832;2022-08-19T01:58:18;20.20;92.70
47310;DHT22;33046;52.270;6.832;2022-08-19T02:00:28;20.10;92.50
47310;DHT22;33046;52.270;6.832;2022-08-19T02:02:36;20.10;92.40
47310;DHT22;33046;52.270;6.832;2022-08-19T02:04:42;20.10;92.30
47310;DHT22;33046;52.270;6.832;2022-08-19T02:06:49;20.10;92.20
47310;DHT22;33046;52.270;6.832;2022-08-19T02:08:56;20.10;92.40
47310;DHT22;33046;52.270;6.832;2022-08-19T02:11:04;20.00;92.30
47310;DHT22;33046;52.270;6.832;2022-08-19T02:13:13;20.00;92.10
47310;DHT22;33046;52.270;6.832;2022-08-19T02:15:20;20.00;92.10
47310;DHT22;33046;52.270;6.832;2022-08-19T02:17:28;20.00;92.20
47310;DHT22;33046;52.270;6.832;2022-08-19T02:19:35;20.00;92.30
47310;DHT22;33046;52.270;6.832;2022-08-19T02:21:41;19.90;92.40
47310;DHT22;33046;52.270;6.832;2022-08-19T02:23:49;19.90;92.80
47310;DHT22;33046;52.270;6.832;2022-08-19T02:25:57;19.90;92.60
47310;DHT22;33046;52.270;6.832;2022-08-19T02:28:04;19.90;92.40
47310;DHT22;33046;52.270;6.832;2022-08-19T02:30:15;19.90;92.20
47310;DHT22;33046;52.270;6.832;2022-08-19T02:32:22;19.80;92.10
47310;DHT22;33046;52.270;6.832;2022-08-19T02:34:29;19.80;91.90
47310;DHT22;33046;52.270;6.832;2022-08-19T02:36:36;19.70;91.80
47310;DHT22;33046;52.270;6.832;2022-08-19T02:38:43;19.70;92.00
47310;DHT22;33046;52.270;6.832;2022-08-19T02:40:52;19.70;92.00
47310;DHT22;33046;52.270;6.832;2022-08-19T02:42:59;19.70;92.00
47310;DHT22;33046;52.270;6.832;2022-08-19T02:45:06;19.70;92.10
47310;DHT22;33046;52.270;6.832;2022-08-19T02:47:15;19.70;92.30
47310;DHT22;33046;52.270;6.832;2022-08-19T02:49:21;19.70;92.40
47310;DHT22;33046;52.270;6.832;2022-08-19T02:51:36;19.70;92.60
47310;DHT22;33046;52.270;6.832;2022-08-19T02:53:44;19.70;92.80
47310;DHT22;33046;52.270;6.832;2022-08-19T02:55:51;19.60;92.60
47310;DHT22;33046;52.270;6.832;2022-08-19T02:57:58;19.60;92.40
47310;DHT22;33046;52.270;6.832;2022-08-19T03:00:06;19.60;92.50
47310;DHT22;33046;52.270;6.832;2022-08-19T03:02:14;19.60;92.60
47310;DHT22;33046;52.270;6.832;2022-08-19T03:04:21;19.60;92.60
47310;DHT22;33046;52.270;6.832;2022-08-19T03:06:28;19.60;92.60
47310;DHT22;33046;52.270;6.832;2022-08-19T03:08:36;19.60;92.50
47310;DHT22;33046;52.270;6.832;2022-08-19T03:10:46;19.60;92.30
47310;DHT22;33046;52.270;6.832;2022-08-19T03:12:53;19.60;92.20
47310;DHT22;33046;52.270;6.832;2022-08-19T03:14:59;19.50;92.10
47310;DHT22;33046;52.270;6.832;2022-08-19T03:17:06;19.50;92.10
47310;DHT22;33046;52.270;6.832;2022-08-19T03:19:16;19.50;92.50
47310;DHT22;33046;52.270;6.832;2022-08-19T03:21:25;19.40;92.40
47310;DHT22;33046;52.270;6.832;2022-08-19T03:23:32;19.40;92.30
47310;DHT22;33046;52.270;6.832;2022-08-19T03:25:41;19.50;92.20
47310;DHT22;33046;52.270;6.832;2022-08-19T03:27:48;19.40;92.20
47310;DHT22;33046;52.270;6.832;2022-08-19T03:29:54;19.40;92.30
47310;DHT22;33046;52.270;6.832;2022-08-19T03:32:04;19.40;92.20
47310;DHT22;33046;52.270;6.832;2022-08-19T03:34:12;19.40;92.20
47310;DHT22;33046;52.270;6.832;2022-08-19T03:36:22;19.20;92.30
47310;DHT22;33046;52.270;6.832;2022-08-19T03:38:29;19.20;92.20
47310;DHT22;33046;52.270;6.832;2022-08-19T03:40:37;19.20;92.20
47310;DHT22;33046;52.270;6.832;2022-08-19T03:42:44;19.20;92.20
47310;DHT22;33046;52.270;6.832;2022-08-19T03:44:50;19.20;92.30
47310;DHT22;33046;52.270;6.832;2022-08-19T03:46:59;19.20;92.30
47310;DHT22;33046;52.270;6.832;2022-08-19T03:49:06;19.20;92.30
47310;DHT22;33046;52.270;6.832;2022-08-19T03:51:16;19.20;92.30
47310;DHT22;33046;52.270;6.832;2022-08-19T03:53:25;19.20;92.60
47310;DHT22;33046;52.270;6.832;2022-08-19T03:55:32;19.20;92.60
47310;DHT22;33046;52.270;6.832;2022-08-19T03:57:39;19.10;92.50
47310;DHT22;33046;52.270;6.832;2022-08-19T03:59:46;19.20;92.50
47310;DHT22;33046;52.270;6.832;2022-08-19T04:01:54;19.10;92.60
47310;DHT22;33046;52.270;6.832;2022-08-19T04:04:02;19.10;92.80
47310;DHT22;33046;52.270;6.832;2022-08-19T04:06:10;19.10;92.70
47310;DHT22;33046;52.270;6.832;2022-08-19T04:08:17;19.00;92.70
47310;DHT22;33046;52.270;6.832;2022-08-19T04:10:26;19.10;92.80
47310;DHT22;33046;52.270;6.832;2022-08-19T04:12:32;19.10;93.00
47310;DHT22;33046;52.270;6.832;2022-08-19T04:14:40;19.10;93.20
47310;DHT22;33046;52.270;6.832;2022-08-19T04:16:48;19.10;92.90
47310;DHT22;33046;52.270;6.832;2022-08-19T04:18:56;19.10;92.80
47310;DHT22;33046;52.270;6.832;2022-08-19T04:21:03;19.00;92.70
47310;DHT22;33046;52.270;6.832;2022-08-19T04:23:10;19.00;92.70
47310;DHT22;33046;52.270;6.832;2022-08-19T04:25:17;19.10;92.70
47310;DHT22;33046;52.270;6.832;2022-08-19T04:27:25;19.00;92.70
47310;DHT22;33046;52.270;6.832;2022-08-19T04:29:32;19.00;92.60
47310;DHT22;33046;52.270;6.832;2022-08-19T04:31:40;19.00;92.70
47310;DHT22;33046;52.270;6.832;2022-08-19T04:33:47;19.00;92.90
47310;DHT22;33046;52.270;6.832;2022-08-19T04:35:54;19.00;92.60
47310;DHT22;33046;52.270;6.832;2022-08-19T04:38:00;18.90;92.60
47310;DHT22;33046;52.270;6.832;2022-08-19T04:40:08;19.00;92.50
47310;DHT22;33046;52.270;6.832;2022-08-19T04:42:16;18.90;92.90
47310;DHT22;33046;52.270;6.832;2022-08-19T04:44:25;18.90;92.70
47310;DHT22;33046;52.270;6.832;2022-08-19T04:46:33;19.00;92.70
47310;DHT22;33046;52.270;6.832;2022-08-19T04:48:40;18.90;92.90
47310;DHT22;33046;52.270;6.832;2022-08-19T04:50:46;18.90;92.90
47310;DHT22;33046;52.270;6.832;2022-08-19T04:52:53;18.90;93.00
47310;DHT22;33046;52.270;6.832;2022-08-19T04:55:00;18.90;92.90
47310;DHT22;33046;52.270;6.832;2022-08-19T04:57:08;18.90;92.90
47310;DHT22;33046;52.270;6.832;2022-08-19T04:59:15;18.90;92.80
47310;DHT22;33046;52.270;6.832;2022-08-19T05:01:25;18.90;92.80
47310;DHT22;33046;52.270;6.832;2022-08-19T05:03:33;18.90;93.00
47310;DHT22;33046;52.270;6.832;2022-08-19T05:05:40;18.90;93.10
47310;DHT22;33046;52.270;6.832;2022-08-19T05:07:47;18.90;93.00
47310;DHT22;33046;52.270;6.832;2022-08-19T05:09:54;18.90;93.10
47310;DHT22;33046;52.270;6.832;2022-08-19T05:12:01;18.90;93.20
47310;DHT22;33046;52.270;6.832;2022-08-19T05:14:09;18.90;93.50
47310;DHT22;33046;52.270;6.832;2022-08-19T05:16:18;18.90;93.50
47310;DHT22;33046;52.270;6.832;2022-08-19T05:18:27;19.00;93.50
47310;DHT22;33046;52.270;6.832;2022-08-19T05:20:34;19.00;93.40
47310;DHT22;33046;52.270;6.832;2022-08-19T05:22:46;19.00;93.40
47310;DHT22;33046;52.270;6.832;2022-08-19T05:24:53;19.10;93.40
47310;DHT22;33046;52.270;6.832;2022-08-19T05:27:15;19.00;93.50
47310;DHT22;33046;52.270;6.832;2022-08-19T05:29:24;19.10;93.50
47310;DHT22;33046;52.270;6.832;2022-08-19T05:31:31;19.20;93.60
47310;DHT22;33046;52.270;6.832;2022-08-19T05:33:39;19.20;93.80
47310;DHT22;33046;52.270;6.832;2022-08-19T05:35:46;19.20;94.00
47310;DHT22;33046;52.270;6.832;2022-08-19T05:37:53;19.20;94.40
47310;DHT22;33046;52.270;6.832;2022-08-19T05:40:00;19.30;94.10
47310;DHT22;33046;52.270;6.832;2022-08-19T05:42:09;19.30;94.10
47310;DHT22;33046;52.270;6.832;2022-08-19T05:44:17;19.30;94.10
47310;DHT22;33046;52.270;6.832;2022-08-19T05:46:24;19.30;94.20
47310;DHT22;33046;52.270;6.832;2022-08-19T05:48:31;19.30;94.10
47310;DHT22;33046;52.270;6.832;2022-08-19T05:50:40;19.30;94.20
47310;DHT22;33046;52.270;6.832;2022-08-19T05:52:46;19.30;94.20
47310;DHT22;33046;52.270;6.832;2022-08-19T05:54:54;19.30;94.20
47310;DHT22;33046;52.270;6.832;2022-08-19T05:57:01;19.40;94.30
47310;DHT22;33046;52.270;6.832;2022-08-19T05:59:09;19.40;94.30
47310;DHT22;33046;52.270;6.832;2022-08-19T06:01:18;19.40;94.40
47310;DHT22;33046;52.270;6.832;2022-08-19T06:03:25;19.40;94.40
47310;DHT22;33046;52.270;6.832;2022-08-19T06:05:32;19.40;94.40
47310;DHT22;33046;52.270;6.832;2022-08-19T06:07:40;19.40;94.30
47310;DHT22;33046;52.270;6.832;2022-08-19T06:09:47;19.40;94.50
47310;DHT22;33046;52.270;6.832;2022-08-19T06:11:55;19.40;94.60
47310;DHT22;33046;52.270;6.832;2022-08-19T06:14:04;19.40;94.60
47310;DHT22;33046;52.270;6.832;2022-08-19T06:16:11;19.40;94.70
47310;DHT22;33046;52.270;6.832;2022-08-19T06:18:18;19.40;94.70
47310;DHT22;33046;52.270;6.832;2022-08-19T06:20:25;19.50;94.80
47310;DHT22;33046;52.270;6.832;2022-08-19T06:22:48;19.50;94.80
47310;DHT22;33046;52.270;6.832;2022-08-19T06:24:55;19.70;94.70
47310;DHT22;33046;52.270;6.832;2022-08-19T06:27:03;19.80;94.50
47310;DHT22;33046;52.270;6.832;2022-08-19T06:29:12;19.90;94.40
47310;DHT22;33046;52.270;6.832;2022-08-19T06:31:22;20.00;94.70
47310;DHT22;33046;52.270;6.832;2022-08-19T06:33:29;20.20;94.70
47310;DHT22;33046;52.270;6.832;2022-08-19T06:35:38;20.30;94.70
47310;DHT22;33046;52.270;6.832;2022-08-19T06:37:47;20.60;94.50
47310;DHT22;33046;52.270;6.832;2022-08-19T06:39:53;20.70;94.40
47310;DHT22;33046;52.270;6.832;2022-08-19T06:42:02;20.90;94.40
47310;DHT22;33046;52.270;6.832;2022-08-19T06:44:09;21.00;94.20
47310;DHT22;33046;52.270;6.832;2022-08-19T06:46:17;21.20;94.30
47310;DHT22;33046;52.270;6.832;2022-08-19T06:48:24;21.40;93.50
47310;DHT22;33046;52.270;6.832;2022-08-19T06:50:31;21.60;93.40
47310;DHT22;33046;52.270;6.832;2022-08-19T06:52:38;21.80;93.90
47310;DHT22;33046;52.270;6.832;2022-08-19T06:54:46;21.90;93.30
47310;DHT22;33046;52.270;6.832;2022-08-19T06:56:52;22.10;93.00
47310;DHT22;33046;52.270;6.832;2022-08-19T06:58:59;22.20;92.50
47310;DHT22;33046;52.270;6.832;2022-08-19T07:01:07;22.40;92.60
47310;DHT22;33046;52.270;6.832;2022-08-19T07:03:14;22.50;92.50
47310;DHT22;33046;52.270;6.832;2022-08-19T07:05:21;22.70;92.50
47310;DHT22;33046;52.270;6.832;2022-08-19T07:07:27;22.90;92.00
47310;DHT22;33046;52.270;6.832;2022-08-19T07:09:35;23.00;92.00
47310;DHT22;33046;52.270;6.832;2022-08-19T07:11:45;23.10;91.70
47310;DHT22;33046;52.270;6.832;2022-08-19T07:13:52;23.20;91.30
47310;DHT22;33046;52.270;6.832;2022-08-19T07:16:03;23.30;91.10
47310;DHT22;33046;52.270;6.832;2022-08-19T07:18:09;23.40;91.20
47310;DHT22;33046;52.270;6.832;2022-08-19T07:20:16;23.40;91.20
47310;DHT22;33046;52.270;6.832;2022-08-19T07:22:23;23.40;91.20
47310;DHT22;33046;52.270;6.832;2022-08-19T07:24:30;23.50;91.00
47310;DHT22;33046;52.270;6.832;2022-08-19T07:26:39;23.50;90.90
47310;DHT22;33046;52.270;6.832;2022-08-19T07:28:48;23.50;90.90
47310;DHT22;33046;52.270;6.832;2022-08-19T07:30:55;23.50;91.00
47310;DHT22;33046;52.270;6.832;2022-08-19T07:33:02;23.50;91.00
47310;DHT22;33046;52.270;6.832;2022-08-19T07:35:09;23.50;91.10
47310;DHT22;33046;52.270;6.832;2022-08-19T07:37:16;23.60;91.30
47310;DHT22;33046;52.270;6.832;2022-08-19T07:39:26;23.60;91.20
47310;DHT22;33046;52.270;6.832;2022-08-19T07:41:34;23.60;91.10
47310;DHT22;33046;52.270;6.832;2022-08-19T07:43:41;23.60;90.90
47310;DHT22;33046;52.270;6.832;2022-08-19T07:45:49;23.60;90.90
47310;DHT22;33046;52.270;6.832;2022-08-19T07:47:56;23.60;91.00
47310;DHT22;33046;52.270;6.832;2022-08-19T07:50:04;23.60;91.00
47310;DHT22;33046;52.270;6.832;2022-08-19T07:52:12;23.60;91.30
47310;DHT22;33046;52.270;6.832;2022-08-19T07:54:20;23.70;91.00
47310;DHT22;33046;52.270;6.832;2022-08-19T07:56:27;23.70;91.10
47310;DHT22;33046;52.270;6.832;2022-08-19T07:58:37;23.70;91.10
47310;DHT22;33046;52.270;6.832;2022-08-19T08:00:46;23.80;91.20
47310;DHT22;33046;52.270;6.832;2022-08-19T08:02:55;23.70;91.10
47310;DHT22;33046;52.270;6.832;2022-08-19T08:05:02;23.60;91.00
47310;DHT22;33046;52.270;6.832;2022-08-19T08:07:09;23.70;91.10
47310;DHT22;33046;52.270;6.832;2022-08-19T08:09:22;23.70;91.20
47310;DHT22;33046;52.270;6.832;2022-08-19T08:11:29;23.70;91.20
47310;DHT22;33046;52.270;6.832;2022-08-19T08:13:36;23.80;91.30
47310;DHT22;33046;52.270;6.832;2022-08-19T08:15:43;23.80;91.20
47310;DHT22;33046;52.270;6.832;2022-08-19T08:17:50;23.80;91.30
47310;DHT22;33046;52.270;6.832;2022-08-19T08:19:58;23.80;91.10
47310;DHT22;33046;52.270;6.832;2022-08-19T08:22:05;23.80;91.20
47310;DHT22;33046;52.270;6.832;2022-08-19T08:24:11;23.80;91.30
47310;DHT22;33046;52.270;6.832;2022-08-19T08:26:18;23.90;91.20
47310;DHT22;33046;52.270;6.832;2022-08-19T08:28:26;23.90;91.10
47310;DHT22;33046;52.270;6.832;2022-08-19T08:30:33;23.90;91.00
47310;DHT22;33046;52.270;6.832;2022-08-19T08:32:40;23.90;90.80
47310;DHT22;33046;52.270;6.832;2022-08-19T08:34:47;23.90;91.00
47310;DHT22;33046;52.270;6.832;2022-08-19T08:36:55;23.90;90.70
47310;DHT22;33046;52.270;6.832;2022-08-19T08:39:02;24.00;91.00
47310;DHT22;33046;52.270;6.832;2022-08-19T08:41:13;24.00;90.90
47310;DHT22;33046;52.270;6.832;2022-08-19T08:43:27;24.10;90.80
47310;DHT22;33046;52.270;6.832;2022-08-19T08:45:36;24.10;90.70
47310;DHT22;33046;52.270;6.832;2022-08-19T08:47:48;24.10;90.60
47310;DHT22;33046;52.270;6.832;2022-08-19T08:49:59;24.20;90.60
47310;DHT22;33046;52.270;6.832;2022-08-19T08:52:11;24.20;90.40
47310;DHT22;33046;52.270;6.832;2022-08-19T08:54:25;24.20;90.20
47310;DHT22;33046;52.270;6.832;2022-08-19T08:56:37;24.20;89.50
47310;DHT22;33046;52.270;6.832;2022-08-19T08:58:51;24.30;89.90
47310;DHT22;33046;52.270;6.832;2022-08-19T09:01:00;24.40;90.30
47310;DHT22;33046;52.270;6.832;2022-08-19T09:03:16;24.40;89.60
47310;DHT22;33046;52.270;6.832;2022-08-19T09:05:26;24.40;88.90
47310;DHT22;33046;52.270;6.832;2022-08-19T09:07:44;24.50;89.00
47310;DHT22;33046;52.270;6.832;2022-08-19T09:12:26;24.60;88.20
47310;DHT22;33046;52.270;6.832;2022-08-19T09:14:43;24.70;88.10
47310;DHT22;33046;52.270;6.832;2022-08-19T09:16:57;24.70;86.90
47310;DHT22;33046;52.270;6.832;2022-08-19T09:19:06;24.70;85.30
47310;DHT22;33046;52.270;6.832;2022-08-19T09:21:14;24.80;84.60
47310;DHT22;33046;52.270;6.832;2022-08-19T09:23:22;24.80;85.00
47310;DHT22;33046;52.270;6.832;2022-08-19T09:25:29;24.80;84.40
47310;DHT22;33046;52.270;6.832;2022-08-19T09:27:37;24.80;84.00
47310;DHT22;33046;52.270;6.832;2022-08-19T09:29:44;24.90;84.00
47310;DHT22;33046;52.270;6.832;2022-08-19T09:31:51;24.90;84.30
47310;DHT22;33046;52.270;6.832;2022-08-19T09:33:57;24.90;81.80
47310;DHT22;33046;52.270;6.832;2022-08-19T09:36:06;24.90;81.90
47310;DHT22;33046;52.270;6.832;2022-08-19T09:38:13;24.90;82.80
47310;DHT22;33046;52.270;6.832;2022-08-19T09:40:21;25.00;83.10
47310;DHT22;33046;52.270;6.832;2022-08-19T09:42:28;25.10;81.60
47310;DHT22;33046;52.270;6.832;2022-08-19T09:44:35;25.00;80.20
47310;DHT22;33046;52.270;6.832;2022-08-19T09:46:42;25.10;80.70
47310;DHT22;33046;52.270;6.832;2022-08-19T09:48:49;25.10;81.20
47310;DHT22;33046;52.270;6.832;2022-08-19T09:51:03;25.20;80.60
47310;DHT22;33046;52.270;6.832;2022-08-19T09:53:10;25.20;80.70
47310;DHT22;33046;52.270;6.832;2022-08-19T09:55:17;25.20;81.60
47310;DHT22;33046;52.270;6.832;2022-08-19T09:57:25;25.30;79.70
47310;DHT22;33046;52.270;6.832;2022-08-19T09:59:32;25.30;79.30
47310;DHT22;33046;52.270;6.832;2022-08-19T10:01:39;25.40;79.80
47310;DHT22;33046;52.270;6.832;2022-08-19T10:03:48;25.40;80.40
47310;DHT22;33046;52.270;6.832;2022-08-19T10:05:56;25.40;81.30
47310;DHT22;33046;52.270;6.832;2022-08-19T10:08:03;25.50;81.30
47310;DHT22;33046;52.270;6.832;2022-08-19T10:10:10;25.60;81.20
47310;DHT22;33046;52.270;6.832;2022-08-19T10:12:17;25.60;79.70
47310;DHT22;33046;52.270;6.832;2022-08-19T10:14:25;25.70;80.00
47310;DHT22;33046;52.270;6.832;2022-08-19T10:16:32;25.80;79.50
47310;DHT22;33046;52.270;6.832;2022-08-19T10:18:39;25.90;78.30
47310;DHT22;33046;52.270;6.832;2022-08-19T10:20:46;26.00;78.30
47310;DHT22;33046;52.270;6.832;2022-08-19T10:22:53;26.00;78.90
47310;DHT22;33046;52.270;6.832;2022-08-19T10:25:00;26.00;79.30
47310;DHT22;33046;52.270;6.832;2022-08-19T10:27:07;26.20;79.30
47310;DHT22;33046;52.270;6.832;2022-08-19T10:29:13;26.30;78.90
47310;DHT22;33046;52.270;6.832;2022-08-19T10:31:24;26.30;78.10
47310;DHT22;33046;52.270;6.832;2022-08-19T10:33:32;26.20;77.60
47310;DHT22;33046;52.270;6.832;2022-08-19T10:35:39;26.20;76.90
47310;DHT22;33046;52.270;6.832;2022-08-19T10:37:46;26.20;76.90
47310;DHT22;33046;52.270;6.832;2022-08-19T10:39:53;26.20;75.70
47310;DHT22;33046;52.270;6.832;2022-08-19T10:42:04;26.20;76.20
47310;DHT22;33046;52.270;6.832;2022-08-19T10:44:12;26.20;76.10
47310;DHT22;33046;52.270;6.832;2022-08-19T10:46:19;26.20;75.60
47310;DHT22;33046;52.270;6.832;2022-08-19T10:48:28;26.30;75.90
47310;DHT22;33046;52.270;6.832;2022-08-19T10:50:36;26.30;75.50
47310;DHT22;33046;52.270;6.832;2022-08-19T10:52:46;26.30;74.70
47310;DHT22;33046;52.270;6.832;2022-08-19T10:54:53;26.30;74.20
47310;DHT22;33046;52.270;6.832;2022-08-19T10:57:00;26.20;74.80
47310;DHT22;33046;52.270;6.832;2022-08-19T10:59:06;26.20;74.60
47310;DHT22;33046;52.270;6.832;2022-08-19T11:01:13;26.20;74.80
47310;DHT22;33046;52.270;6.832;2022-08-19T11:03:20;26.10;74.50
47310;DHT22;33046;52.270;6.832;2022-08-19T11:05:28;26.10;75.20
47310;DHT22;33046;52.270;6.832;2022-08-19T11:07:35;26.10;74.10
47310;DHT22;33046;52.270;6.832;2022-08-19T11:09:42;26.10;73.90
47310;DHT22;33046;52.270;6.832;2022-08-19T11:11:49;26.00;74.60
47310;DHT22;33046;52.270;6.832;2022-08-19T11:13:56;26.00;74.30
47310;DHT22;33046;52.270;6.832;2022-08-19T11:16:05;26.00;74.80
47310;DHT22;33046;52.270;6.832;2022-08-19T11:18:13;25.90;74.10
47310;DHT22;33046;52.270;6.832;2022-08-19T11:20:19;25.90;73.90
47310;DHT22;33046;52.270;6.832;2022-08-19T11:22:28;25.90;74.10
47310;DHT22;33046;52.270;6.832;2022-08-19T11:24:37;26.00;74.50
47310;DHT22;33046;52.270;6.832;2022-08-19T11:26:44;26.00;74.30
47310;DHT22;33046;52.270;6.832;2022-08-19T11:28:51;26.10;74.70
47310;DHT22;33046;52.270;6.832;2022-08-19T11:30:58;26.20;72.80
47310;DHT22;33046;52.270;6.832;2022-08-19T11:33:05;26.30;73.00
47310;DHT22;33046;52.270;6.832;2022-08-19T11:35:12;26.40;73.20
47310;DHT22;33046;52.270;6.832;2022-08-19T11:37:18;26.60;73.90
47310;DHT22;33046;52.270;6.832;2022-08-19T11:39:29;26.60;74.40
47310;DHT22;33046;52.270;6.832;2022-08-19T11:41:36;26.60;72.40
47310;DHT22;33046;52.270;6.832;2022-08-19T11:43:43;26.60;70.40
47310;DHT22;33046;52.270;6.832;2022-08-19T11:45:50;26.70;71.00
47310;DHT22;33046;52.270;6.832;2022-08-19T11:47:56;26.80;70.50
47310;DHT22;33046;52.270;6.832;2022-08-19T11:50:04;26.80;69.30
47310;DHT22;33046;52.270;6.832;2022-08-19T11:52:11;26.80;68.60
47310;DHT22;33046;52.270;6.832;2022-08-19T11:54:18;26.90;67.10
47310;DHT22;33046;52.270;6.832;2022-08-19T11:56:26;27.00;66.40
47310;DHT22;33046;52.270;6.832;2022-08-19T11:58:34;27.10;66.30
47310;DHT22;33046;52.270;6.832;2022-08-19T12:00:41;27.20;64.40
47310;DHT22;33046;52.270;6.832;2022-08-19T12:02:48;27.20;63.70
47310;DHT22;33046;52.270;6.832;2022-08-19T12:04:54;27.20;63.10
47310;DHT22;33046;52.270;6.832;2022-08-19T12:07:01;27.30;63.40
47310;DHT22;33046;52.270;6.832;2022-08-19T12:09:09;27.40;63.50
47310;DHT22;33046;52.270;6.832;2022-08-19T12:11:16;27.50;62.50
47310;DHT22;33046;52.270;6.832;2022-08-19T12:13:24;27.50;61.60
47310;DHT22;33046;52.270;6.832;2022-08-19T12:15:35;27.60;61.40
47310;DHT22;33046;52.270;6.832;2022-08-19T12:17:42;27.70;59.40
47310;DHT22;33046;52.270;6.832;2022-08-19T12:19:49;27.70;60.30
47310;DHT22;33046;52.270;6.832;2022-08-19T12:21:59;27.80;60.10
47310;DHT22;33046;52.270;6.832;2022-08-19T12:24:07;27.80;59.60
47310;DHT22;33046;52.270;6.832;2022-08-19T12:26:14;27.80;60.10
47310;DHT22;33046;52.270;6.832;2022-08-19T12:28:24;27.90;60.30
47310;DHT22;33046;52.270;6.832;2022-08-19T12:30:31;27.90;60.30
47310;DHT22;33046;52.270;6.832;2022-08-19T12:32:37;27.90;60.10
47310;DHT22;33046;52.270;6.832;2022-08-19T12:34:44;28.00;60.30
47310;DHT22;33046;52.270;6.832;2022-08-19T12:36:51;27.90;60.10
47310;DHT22;33046;52.270;6.832;2022-08-19T12:38:58;28.00;60.10
47310;DHT22;33046;52.270;6.832;2022-08-19T12:41:06;28.00;59.70
47310;DHT22;33046;52.270;6.832;2022-08-19T12:43:14;28.10;59.40
47310;DHT22;33046;52.270;6.832;2022-08-19T12:45:22;28.10;59.90
47310;DHT22;33046;52.270;6.832;2022-08-19T12:47:29;28.10;59.60
47310;DHT22;33046;52.270;6.832;2022-08-19T12:49:36;28.20;59.30
47310;DHT22;33046;52.270;6.832;2022-08-19T12:51:43;28.20;59.70
47310;DHT22;33046;52.270;6.832;2022-08-19T12:53:50;28.30;59.00
47310;DHT22;33046;52.270;6.832;2022-08-19T12:55:57;28.30;59.30
47310;DHT22;33046;52.270;6.832;2022-08-19T12:58:04;28.40;59.20
47310;DHT22;33046;52.270;6.832;2022-08-19T13:00:14;28.40;58.50
47310;DHT22;33046;52.270;6.832;2022-08-19T13:02:23;28.30;57.10
47310;DHT22;33046;52.270;6.832;2022-08-19T13:04:29;28.30;57.50
47310;DHT22;33046;52.270;6.832;2022-08-19T13:06:37;28.30;57.40
47310;DHT22;33046;52.270;6.832;2022-08-19T13:11:51;28.40;58.00
47310;DHT22;33046;52.270;6.832;2022-08-19T13:13:58;28.30;57.40
47310;DHT22;33046;52.270;6.832;2022-08-19T13:16:05;28.40;58.40
47310;DHT22;33046;52.270;6.832;2022-08-19T13:18:13;28.30;57.00
47310;DHT22;33046;52.270;6.832;2022-08-19T13:20:21;28.40;57.30
47310;DHT22;33046;52.270;6.832;2022-08-19T13:22:28;28.40;57.20
47310;DHT22;33046;52.270;6.832;2022-08-19T13:24:35;28.40;57.10
47310;DHT22;33046;52.270;6.832;2022-08-19T13:26:41;28.40;57.20
47310;DHT22;33046;52.270;6.832;2022-08-19T13:28:48;28.40;57.50
47310;DHT22;33046;52.270;6.832;2022-08-19T13:30:55;28.40;57.40
47310;DHT22;33046;52.270;6.832;2022-08-19T13:33:02;28.50;58.40